DIRECCIÓN GENERAL DE AERONÁUTICA CIVIL
DIRECCIÓN METEOROLÓGICA DE CHILE
INFORMACIÓN METAR Y TAF

FIR PUERTO MONTT

Estación: SCQP
METAR SCQP 130200Z 34005KT 9999 SCT019 15/14 Q1017=

TAF SCQP 122229Z 1300/1324 26005KT 9999 BKN040 TN10/1310Z TX21/1319Z BECMG 1301/1303 VRB02KT BECMG 1314/1316 24010KT CAVOK=

Estación: SCVD
METAR SCVD 130200Z AUTO 36005KT 8000 -RA FEW013 SCT016 OVC021 15/14 Q1015=

TAF SCVD 122230Z 1300/1312 24010KT 9999 SCT030 TX14/1300Z TN08/1310Z BECMG 1301/1303 VRB02KT TEMPO 1310/1314 BKN030=

Estación: SCJO
METAR SCJO 122200Z 30009KT 230V340 9999 -SHRA BKN017 BKN030 17/17 Q1011=

TAF SCJO 122230Z 1300/1312 23008KT 9999 SCT040 TX14/1300Z TN08/1310Z BECMG 1301/1303 VRB02KT TEMPO 1310/1314 BKN030=

Estación: SCTE
METAR SCTE 130200Z 25008KT 9999 OVC010 13/12 Q1011 NOSIG=

TAF SCTE 122230Z 1300/1324 24008KT 9999 BKN025 TN08/1310Z TX20/1319Z TEMPO 1300/1301 5000 SHRA OVC015 BECMG 1301/1303 VRB02KT BECMG 1313/1315 27008KT=

Estación: SCPQ
METAR SCPQ 130200Z AUTO 22005KT 190V260 9999 FEW017 BKN022 OVC048 11/09 Q1012=

TAF SCPQ 122235Z 1300/1312 23010KT 9999 BKN040 TX14/1300Z TN08/1310Z BECMG 1301/1303 30010KT=

Estación: SCON
METAR SCON 130200Z AUTO 26003KT 230V300 CAVOK 12/08 Q1012=

TAF SCON NIL=

Estación: SCTN
METAR SCTN 130200Z AUTO 18005KT //// R/////// // OVC033 13/10 Q1012=

TAF SCTN 122236Z 1300/1312 23010KT 9999 BKN040 TX13/1300Z TN09/1310Z BECMG 1301/1303 30010KT=

Estación: SCFT
METAR SCFT 130200Z AUTO 25007KT 190V280 9999 -RA 12/09 Q1007=

TAF SCFT NIL=

Estación: SCAP
METAR SCAP 121900Z 25009KT 7000 -SHRA BKN025 14/12 Q1007=

TAF SCAP NIL=

Estación: SCMK
METAR SCMK 122100Z 32010KT 9999 BKN015 17/13 Q1002 RESHRA=

TAF SCMK 122237Z 1300/1312 27012KT 9999 BKN030 TX13/1300Z TN09/1310Z=

Estación: SCAS
METAR SCAS 121900Z 25005KT 9000 -RA SCT020 OVC033 15/13 Q0998=

TAF SCAS NIL=

Estación: SCCY
METAR SCCY 130200Z AUTO VRB05KT CAVOK 12/02 Q1003=

TAF SCCY 122239Z 1300/1312 23010KT 9999 BKN040 TX12/1300Z TN07/1310Z=

Estación: SCBA
METAR SCBA 130200Z AUTO 30021KT CAVOK 08/00 Q1001=

TAF SCBA 122239Z 1300/1324 30025G40KT 9999 BKN040 TN06/1307Z TX17/1319Z=

Estación: SCCC
METAR SCCC 121900Z 32008G18KT 9999 SCT040 BKN090 20/05 Q0993=

TAF SCCC NIL=

Estación: SCHR
METAR SCHR 121900Z 29008KT 8000 -RA SCT015 OVC025 11/08 Q0994=

TAF SCHR 121038Z 1212/1300 29010KT 9000 SCT030 TN12/1212Z TX17/1218Z TEMPO 1212/1215 VRB03KT 6000 SHRA RA BKN015 OVC025=


Volver